createdAt,value
2023-03-20T00:00:38.720Z,101586.50
2023-03-20T00:03:25.077Z,101589.66
2023-03-20T00:06:17.368Z,101585.00
2023-03-20T00:09:07.422Z,101582.72
2023-03-20T00:11:56.020Z,101582.81
2023-03-20T00:14:42.523Z,101582.28
2023-03-20T00:17:28.984Z,101575.75
2023-03-20T00:20:18.914Z,101564.09
2023-03-20T00:23:06.302Z,101551.56
2023-03-20T00:25:53.132Z,101549.53
2023-03-20T00:28:42.739Z,101551.94
2023-03-20T00:31:31.892Z,101543.16
2023-03-20T00:34:20.535Z,101548.88
2023-03-20T00:37:06.662Z,101559.47
2023-03-20T00:39:54.061Z,101565.66
2023-03-20T00:42:40.773Z,101568.13
2023-03-20T00:45:28.347Z,101571.75
2023-03-20T00:48:16.621Z,101584.41
2023-03-20T00:51:02.936Z,101581.59
2023-03-20T00:53:51.566Z,101584.47
2023-03-20T00:56:43.958Z,101582.97
2023-03-20T00:59:34.519Z,101599.88
2023-03-20T01:02:22.226Z,101598.13
2023-03-20T01:05:08.967Z,101604.94
2023-03-20T01:07:55.710Z,101584.16
2023-03-20T01:10:42.346Z,101589.72
2023-03-20T01:13:32.063Z,101589.19
2023-03-20T01:16:22.660Z,101584.16
2023-03-20T01:19:13.190Z,101593.28
2023-03-20T01:21:59.456Z,101584.47
2023-03-20T01:24:46.188Z,101588.13
2023-03-20T01:27:32.336Z,101586.16
2023-03-20T01:30:23.324Z,101595.78
2023-03-20T01:33:15.712Z,101587.13
2023-03-20T01:36:03.256Z,101591.88
2023-03-20T01:38:56.165Z,101583.09
2023-03-20T01:41:43.776Z,101580.53
2023-03-20T01:44:32.127Z,101582.03
2023-03-20T01:47:22.216Z,101567.41
2023-03-20T01:50:27.934Z,101570.13
2023-03-20T01:53:23.072Z,101575.16
2023-03-20T01:56:16.571Z,101592.91
2023-03-20T01:59:12.996Z,101600.38
2023-03-20T02:02:00.244Z,101597.22
2023-03-20T02:04:53.369Z,101601.66
2023-03-20T02:07:40.554Z,101599.09
2023-03-20T02:10:29.379Z,101596.16
2023-03-20T02:13:27.257Z,101599.56
2023-03-20T02:16:15.496Z,101593.31
2023-03-20T02:19:29.207Z,101583.97
2023-03-20T02:22:46.218Z,101578.91
2023-03-20T02:26:01.668Z,101572.19
2023-03-20T02:29:19.018Z,101564.97
2023-03-20T02:32:33.937Z,101579.09
2023-03-20T02:35:42.888Z,101579.13
2023-03-20T02:38:58.233Z,101584.38
2023-03-20T02:41:52.808Z,101564.94
2023-03-20T02:44:44.817Z,101568.19
2023-03-20T02:47:36.930Z,101571.50
2023-03-20T02:50:38.517Z,101572.81
2023-03-20T02:53:35.974Z,101569.72
2023-03-20T02:56:32.523Z,101528.09
2023-03-20T02:59:29.605Z,101534.66
2023-03-20T03:02:19.692Z,101521.03
2023-03-20T03:05:12.623Z,101509.22
2023-03-20T03:08:03.270Z,101504.81
2023-03-20T03:10:56.554Z,101531.56
2023-03-20T03:13:49.811Z,101539.63
2023-03-20T03:16:38.942Z,101540.50
2023-03-20T03:19:27.929Z,101539.94
2023-03-20T03:22:14.288Z,101532.00
2023-03-20T03:25:00.366Z,101539.41
2023-03-20T03:27:50.236Z,101539.31
2023-03-20T03:30:40.810Z,101532.84
2023-03-20T03:33:30.783Z,101535.25
2023-03-20T03:36:25.444Z,101536.19
2023-03-20T03:39:22.295Z,101539.75
2023-03-20T03:42:15.761Z,101532.25
2023-03-20T03:45:09.546Z,101540.09
2023-03-20T03:48:01.138Z,101530.56
2023-03-20T03:50:52.630Z,101526.94
2023-03-20T03:53:44.111Z,101524.63
2023-03-20T03:56:33.800Z,101516.97
2023-03-20T03:59:24.122Z,101508.59
2023-03-20T04:02:11.835Z,101506.84
2023-03-20T04:05:03.039Z,101506.47
2023-03-20T04:07:54.971Z,101493.19
2023-03-20T04:10:41.133Z,101500.59
2023-03-20T04:13:28.216Z,101490.44
2023-03-20T04:16:15.197Z,101494.06
2023-03-20T04:19:03.531Z,101489.44
2023-03-20T04:21:51.217Z,101492.44
2023-03-20T04:24:37.611Z,101488.44
2023-03-20T04:27:24.263Z,101490.81
2023-03-20T04:30:12.850Z,101501.03
2023-03-20T04:33:17.635Z,101496.56
2023-03-20T04:36:23.182Z,101496.31
2023-03-20T04:39:13.310Z,101504.56
2023-03-20T04:41:59.778Z,101504.56
2023-03-20T04:44:47.166Z,101500.66
2023-03-20T04:47:33.768Z,101511.25
2023-03-20T04:50:21.124Z,101502.84
2023-03-20T04:53:09.450Z,101494.94
2023-03-20T04:55:57.299Z,101498.06
2023-03-20T04:58:43.903Z,101495.22
2023-03-20T05:01:30.733Z,101489.69
2023-03-20T05:04:17.103Z,101491.22
2023-03-20T05:07:03.863Z,101484.44
2023-03-20T05:09:58.953Z,101498.47
2023-03-20T05:12:47.984Z,101487.25
2023-03-20T05:15:43.981Z,101483.53
2023-03-20T05:18:42.038Z,101477.44
2023-03-20T05:21:44.571Z,101491.69
2023-03-20T05:24:45.253Z,101487.28
2023-03-20T05:27:47.101Z,101493.38
2023-03-20T05:30:54.258Z,101488.09
2023-03-20T05:33:55.820Z,101489.00
2023-03-20T05:36:56.232Z,101490.97
2023-03-20T05:40:03.194Z,101486.78
2023-03-20T05:43:05.680Z,101492.03
2023-03-20T05:46:00.374Z,101500.91
2023-03-20T05:49:09.618Z,101502.06
2023-03-20T05:52:31.433Z,101511.53
2023-03-20T05:55:31.331Z,101511.94
2023-03-20T05:58:49.480Z,101519.34
2023-03-20T06:02:04.001Z,101527.19
2023-03-20T06:04:54.061Z,101521.28
2023-03-20T06:07:46.621Z,101520.34
2023-03-20T06:10:34.593Z,101521.66
2023-03-20T06:13:21.302Z,101518.38
2023-03-20T06:16:10.172Z,101524.47
2023-03-20T06:18:58.242Z,101520.06
2023-03-20T06:21:46.428Z,101527.16
2023-03-20T06:24:47.403Z,101523.56
2023-03-20T06:27:34.113Z,101533.13
2023-03-20T06:30:21.007Z,101532.78
2023-03-20T06:33:10.382Z,101545.16
2023-03-20T06:36:10.533Z,101542.78
2023-03-20T06:38:57.568Z,101549.59
2023-03-20T06:41:45.780Z,101548.31
2023-03-20T06:44:32.402Z,101549.38
2023-03-20T06:47:32.158Z,101544.84
2023-03-20T06:50:22.993Z,101546.09
2023-03-20T06:53:09.827Z,101549.72
2023-03-20T06:56:25.642Z,101540.81
2023-03-20T06:59:12.054Z,101546.72
2023-03-20T07:01:58.594Z,101550.50
2023-03-20T07:04:46.713Z,101546.72
2023-03-20T07:07:34.692Z,101549.75
2023-03-20T07:10:21.359Z,101552.28
2023-03-20T07:13:12.174Z,101556.38
2023-03-20T07:16:05.155Z,101558.53
2023-03-20T07:18:56.884Z,101562.63
2023-03-20T07:21:43.061Z,101565.03
2023-03-20T07:24:32.011Z,101558.59
2023-03-20T07:27:18.910Z,101563.41
2023-03-20T07:30:07.123Z,101559.78
2023-03-20T07:32:53.598Z,101561.63
2023-03-20T07:35:41.526Z,101560.06
2023-03-20T07:38:28.356Z,101557.22
2023-03-20T07:41:26.377Z,101552.31
2023-03-20T07:44:21.896Z,101562.09
2023-03-20T07:47:11.996Z,101550.91
2023-03-20T07:49:58.599Z,101547.38
2023-03-20T07:52:47.671Z,101548.38
2023-03-20T07:55:33.709Z,101550.22
2023-03-20T07:58:21.713Z,101560.88
2023-03-20T08:01:08.247Z,101563.00
2023-03-20T08:03:54.416Z,101555.06
2023-03-20T08:06:40.752Z,101550.94
2023-03-20T08:09:27.466Z,101555.66
2023-03-20T08:12:13.709Z,101554.91
2023-03-20T08:15:01.421Z,101550.66
2023-03-20T08:17:48.475Z,101556.34
2023-03-20T08:20:34.814Z,101551.94
2023-03-20T08:23:21.178Z,101555.94
2023-03-20T08:26:08.713Z,101551.44
2023-03-20T08:28:55.173Z,101558.69
2023-03-20T08:31:43.488Z,101558.25
2023-03-20T08:34:29.927Z,101554.63
2023-03-20T08:37:16.113Z,101550.66
2023-03-20T08:40:02.844Z,101555.56
2023-03-20T08:42:49.116Z,101553.72
2023-03-20T08:45:35.703Z,101560.63
2023-03-20T08:48:24.048Z,101560.53
2023-03-20T08:51:10.595Z,101551.69
2023-03-20T08:53:57.267Z,101553.97
2023-03-20T08:56:43.705Z,101554.78
2023-03-20T08:59:31.313Z,101556.28
2023-03-20T09:02:17.515Z,101563.00
2023-03-20T09:05:05.496Z,101555.38
2023-03-20T09:07:52.324Z,101556.97
2023-03-20T09:10:40.629Z,101568.78
2023-03-20T09:13:28.049Z,101560.47
2023-03-20T09:16:15.153Z,101565.75
2023-03-20T09:19:01.877Z,101572.19
2023-03-20T09:21:49.751Z,101561.00
2023-03-20T09:24:36.291Z,101568.16
2023-03-20T09:27:22.676Z,101570.59
2023-03-20T09:30:10.776Z,101570.28
2023-03-20T09:32:56.961Z,101564.25
2023-03-20T09:35:43.891Z,101566.34
2023-03-20T09:38:31.981Z,101559.06
2023-03-20T09:41:22.603Z,101553.69
2023-03-20T09:44:15.579Z,101549.47
2023-03-20T09:47:19.729Z,101553.75
2023-03-20T09:50:22.058Z,101555.72
2023-03-20T09:53:12.634Z,101557.13
2023-03-20T09:56:01.599Z,101551.81
2023-03-20T09:58:55.455Z,101558.47
2023-03-20T10:01:48.737Z,101552.88
2023-03-20T10:04:37.168Z,101553.91
2023-03-20T10:07:24.169Z,101559.09
2023-03-20T10:10:11.540Z,101553.22
2023-03-20T10:13:09.908Z,101552.72
2023-03-20T10:16:03.931Z,101561.13
2023-03-20T10:18:57.250Z,101555.56
2023-03-20T10:21:45.709Z,101554.22
2023-03-20T10:24:37.005Z,101551.66
2023-03-20T10:27:28.056Z,101550.91
2023-03-20T10:30:26.460Z,101549.13
2023-03-20T10:33:27.508Z,101545.38
2023-03-20T10:36:34.117Z,101549.06
2023-03-20T10:39:31.589Z,101546.84
2023-03-20T10:42:22.807Z,101553.97
2023-03-20T10:45:20.600Z,101541.47
2023-03-20T10:48:17.234Z,101539.38
2023-03-20T10:51:04.337Z,101536.22
2023-03-20T10:53:53.793Z,101533.28
2023-03-20T10:56:45.027Z,101538.38
2023-03-20T10:59:37.649Z,101538.44
2023-03-20T11:02:27.374Z,101536.41
2023-03-20T11:05:23.591Z,101543.97
2023-03-20T11:08:14.144Z,101532.22
2023-03-20T11:11:03.037Z,101538.00
2023-03-20T11:13:49.349Z,101537.34
2023-03-20T11:16:36.782Z,101533.47
2023-03-20T11:19:25.765Z,101529.63
2023-03-20T11:22:26.757Z,101537.91
2023-03-20T11:25:26.354Z,101522.22
2023-03-20T11:28:27.772Z,101508.66
2023-03-20T11:31:19.921Z,101508.69
2023-03-20T11:34:22.737Z,101505.56
2023-03-20T11:37:24.775Z,101497.81
2023-03-20T11:40:17.426Z,101491.25
2023-03-20T11:43:07.383Z,101496.50
2023-03-20T11:45:57.431Z,101487.19
2023-03-20T11:48:46.466Z,101489.91
2023-03-20T11:51:35.178Z,101481.75
2023-03-20T11:54:25.818Z,101490.06
2023-03-20T11:57:29.068Z,101481.09
2023-03-20T12:00:21.341Z,101483.66
2023-03-20T12:03:42.806Z,101477.72
2023-03-20T12:06:42.330Z,101475.16
2023-03-20T12:09:38.755Z,101481.63
2023-03-20T12:12:34.247Z,101487.50
2023-03-20T12:15:26.059Z,101481.09
2023-03-20T12:18:18.562Z,101479.94
2023-03-20T12:21:10.464Z,101489.56
2023-03-20T12:24:04.388Z,101480.25
2023-03-20T12:27:00.810Z,101481.09
2023-03-20T12:29:53.157Z,101485.16
2023-03-20T12:32:48.703Z,101480.41
2023-03-20T12:35:41.142Z,101474.31
2023-03-20T12:38:35.317Z,101482.94
2023-03-20T12:41:27.807Z,101476.53
2023-03-20T12:44:29.185Z,101476.53
2023-03-20T12:47:36.986Z,101477.56
2023-03-20T12:50:33.801Z,101480.59
2023-03-20T12:53:41.033Z,101472.13
2023-03-20T12:57:02.768Z,101476.69
2023-03-20T13:00:05.978Z,101471.97
2023-03-20T13:03:06.558Z,101474.50
2023-03-20T13:06:00.203Z,101478.22
2023-03-20T13:09:16.342Z,101486.50
2023-03-20T13:12:10.014Z,101481.63
2023-03-20T13:15:14.505Z,101481.09
2023-03-20T13:18:08.326Z,101475.84
2023-03-20T13:20:57.468Z,101471.97
2023-03-20T13:23:53.203Z,101472.16
2023-03-20T13:26:47.110Z,101468.94
2023-03-20T13:29:42.096Z,101475.50
2023-03-20T13:32:42.085Z,101476.00
2023-03-20T13:35:43.959Z,101481.25
2023-03-20T13:38:38.317Z,101488.00
2023-03-20T13:41:26.159Z,101488.28
2023-03-20T13:44:15.258Z,101498.09
2023-03-20T13:47:05.165Z,101504.16
2023-03-20T13:49:59.895Z,101517.75
2023-03-20T13:52:50.578Z,101524.81
2023-03-20T13:55:47.030Z,101536.78
2023-03-20T13:58:46.032Z,101541.31
2023-03-20T14:01:47.316Z,101556.19
2023-03-20T14:04:35.731Z,101569.09
2023-03-20T14:07:36.484Z,101587.84
2023-03-20T14:10:36.616Z,101591.88
2023-03-20T14:13:24.305Z,101602.88
2023-03-20T14:16:16.662Z,101612.72
2023-03-20T14:19:07.633Z,101616.91
2023-03-20T14:21:56.510Z,101628.78
2023-03-20T14:24:51.067Z,101619.69
2023-03-20T14:27:54.833Z,101625.72
2023-03-20T14:30:44.353Z,101636.53
2023-03-20T14:33:32.373Z,101627.50
2023-03-20T14:36:21.809Z,101633.41
2023-03-20T14:39:19.504Z,101634.50
2023-03-20T14:42:24.832Z,101634.06
2023-03-20T14:45:31.044Z,101635.13
2023-03-20T14:48:30.003Z,101628.25
2023-03-20T14:51:28.530Z,101633.72
2023-03-20T14:54:29.766Z,101639.03
2023-03-20T14:57:30.269Z,101648.13
2023-03-20T15:00:23.039Z,101641.81
2023-03-20T15:03:12.194Z,101654.72
2023-03-20T15:06:02.508Z,101659.47
2023-03-20T15:08:52.587Z,101671.38
2023-03-20T15:11:39.299Z,101662.44
2023-03-20T15:14:30.602Z,101661.03
2023-03-20T15:17:20.820Z,101677.47
2023-03-20T15:20:17.924Z,101689.19
2023-03-20T15:23:05.010Z,101692.34
2023-03-20T15:25:52.007Z,101704.19
2023-03-20T15:28:39.404Z,101714.34
2023-03-20T15:31:30.730Z,101729.53
2023-03-20T15:34:22.013Z,101730.50
2023-03-20T15:37:16.104Z,101724.06
2023-03-20T15:40:12.881Z,101729.31
2023-03-20T15:43:00.267Z,101729.53
2023-03-20T15:45:48.384Z,101732.22
2023-03-20T15:48:36.182Z,101734.50
2023-03-20T15:51:27.658Z,101738.59
2023-03-20T15:54:17.092Z,101729.38
2023-03-20T15:57:05.284Z,101733.44
2023-03-20T15:59:52.059Z,101745.31
2023-03-20T16:02:38.859Z,101745.16
2023-03-20T16:05:30.565Z,101742.97
2023-03-20T16:08:24.142Z,101749.28
2023-03-20T16:11:37.117Z,101757.16
2023-03-20T16:14:26.126Z,101765.03
2023-03-20T16:17:18.494Z,101760.63
2023-03-20T16:20:06.073Z,101761.66
2023-03-20T16:23:01.043Z,101760.69
2023-03-20T16:25:47.538Z,101752.19
2023-03-20T16:28:37.827Z,101759.31
2023-03-20T16:31:28.323Z,101749.28
2023-03-20T16:34:19.825Z,101758.34
2023-03-20T16:37:10.270Z,101750.38
2023-03-20T16:40:12.808Z,101751.72
2023-03-20T16:43:06.509Z,101765.44
2023-03-20T16:45:56.380Z,101757.97
2023-03-20T16:48:45.448Z,101764.94
2023-03-20T16:51:32.867Z,101760.59
2023-03-20T16:54:21.605Z,101764.66
2023-03-20T16:57:17.660Z,101764.22
2023-03-20T17:00:08.313Z,101766.63
2023-03-20T17:03:08.983Z,101770.56
2023-03-20T17:05:57.820Z,101771.56
2023-03-20T17:08:49.482Z,101773.13
2023-03-20T17:11:41.508Z,101761.16
2023-03-20T17:14:29.838Z,101770.28
2023-03-20T17:17:19.661Z,101773.38
2023-03-20T17:20:07.204Z,101767.28
2023-03-20T17:23:19.148Z,101775.19
2023-03-20T17:26:06.654Z,101783.69
2023-03-20T17:28:53.227Z,101784.66
2023-03-20T17:31:41.207Z,101791.41
2023-03-20T17:34:27.553Z,101796.59
2023-03-20T17:37:16.340Z,101799.97
2023-03-20T17:40:03.400Z,101802.69
2023-03-20T17:42:49.763Z,101810.97
2023-03-20T17:45:36.227Z,101815.22
2023-03-20T17:48:24.082Z,101811.81
2023-03-20T17:51:10.952Z,101815.22
2023-03-20T17:53:57.893Z,101818.94
2023-03-20T17:56:44.066Z,101830.59
2023-03-20T17:59:31.340Z,101835.91
2023-03-20T18:02:19.137Z,101833.03
2023-03-20T18:05:08.394Z,101831.16
2023-03-20T18:07:54.780Z,101822.69
2023-03-20T18:10:41.911Z,101826.22
2023-03-20T18:13:29.191Z,101839.19
2023-03-20T18:16:18.392Z,101834.94
2023-03-20T18:19:05.312Z,101833.63
2023-03-20T18:21:53.235Z,101827.53
2023-03-20T18:24:52.091Z,101826.81
2023-03-20T18:27:40.291Z,101835.59
2023-03-20T18:30:31.225Z,101834.13
2023-03-20T18:33:18.145Z,101848.22
2023-03-20T18:36:05.471Z,101836.66
2023-03-20T18:38:53.502Z,101840.88
2023-03-20T18:41:39.787Z,101844.34
2023-03-20T18:44:26.460Z,101843.22
2023-03-20T18:47:12.984Z,101849.97
2023-03-20T18:49:59.303Z,101856.06
2023-03-20T18:52:46.697Z,101856.28
2023-03-20T18:55:36.010Z,101864.06
2023-03-20T18:58:24.969Z,101877.47
2023-03-20T19:01:12.826Z,101874.41
2023-03-20T19:03:59.359Z,101870.19
2023-03-20T19:06:46.215Z,101873.41
2023-03-20T19:09:34.700Z,101884.81
2023-03-20T19:12:24.733Z,101881.84
2023-03-20T19:15:11.830Z,101892.06
2023-03-20T19:17:58.566Z,101892.59
2023-03-20T19:20:48.059Z,101890.19
2023-03-20T19:23:34.825Z,101895.16
2023-03-20T19:26:24.372Z,101908.06
2023-03-20T19:29:14.013Z,101894.38
2023-03-20T19:32:00.677Z,101912.44
2023-03-20T19:35:35.163Z,101917.63
2023-03-20T19:37:53.790Z,101924.34
2023-03-20T19:40:43.320Z,101936.81
2023-03-20T19:43:30.394Z,101943.59
2023-03-20T19:46:36.141Z,101933.22
2023-03-20T19:49:30.637Z,101945.16
2023-03-20T19:52:28.455Z,101954.56
2023-03-20T19:55:15.298Z,101965.25
2023-03-20T19:58:02.005Z,101967.34
2023-03-20T20:01:12.225Z,101984.75
2023-03-20T20:03:59.043Z,101988.16
2023-03-20T20:06:48.649Z,101995.91
2023-03-20T20:09:35.571Z,101994.69
2023-03-20T20:12:22.124Z,102015.81
2023-03-20T20:15:10.767Z,102028.38
2023-03-20T20:17:57.299Z,102035.84
2023-03-20T20:21:31.988Z,102047.38
2023-03-20T20:23:53.145Z,102052.63
2023-03-20T20:26:49.390Z,102058.06
2023-03-20T20:29:39.555Z,102059.84
2023-03-20T20:32:28.163Z,102071.38
2023-03-20T20:35:56.046Z,102059.34
2023-03-20T20:38:48.327Z,102052.22
2023-03-20T20:41:30.163Z,102057.91
2023-03-20T20:44:17.576Z,102072.47
2023-03-20T20:47:04.850Z,102074.56
2023-03-20T20:49:51.097Z,102081.66
2023-03-20T20:52:39.732Z,102103.19
2023-03-20T20:55:29.822Z,102088.66
2023-03-20T20:58:16.256Z,102096.13
2023-03-20T21:01:03.120Z,102104.81
2023-03-20T21:03:49.797Z,102099.03
2023-03-20T21:07:06.319Z,102116.28
2023-03-20T21:09:43.313Z,102114.88
2023-03-20T21:12:40.162Z,102107.78
2023-03-20T21:15:29.349Z,102109.28
2023-03-20T21:18:16.417Z,102104.50
2023-03-20T21:21:07.209Z,102109.53
2023-03-20T21:23:55.395Z,102105.69
2023-03-20T21:26:42.010Z,102104.25
2023-03-20T21:29:30.588Z,102113.19
2023-03-20T21:32:20.557Z,102124.47
2023-03-20T21:35:09.237Z,102129.56
2023-03-20T21:41:10.148Z,102117.34
2023-03-20T21:43:56.648Z,102119.00
2023-03-20T21:50:37.012Z,102113.13
2023-03-20T21:56:48.529Z,102100.88
2023-03-20T22:02:23.444Z,102099.38
2023-03-20T22:09:18.533Z,102108.22
2023-03-20T22:15:22.896Z,102099.38
2023-03-20T22:24:43.598Z,102072.19
2023-03-20T22:27:46.551Z,102077.59
2023-03-20T22:46:03.309Z,102034.16
2023-03-20T22:48:53.520Z,102023.34
2023-03-20T22:51:52.090Z,102010.19
2023-03-20T22:54:46.037Z,102018.22
2023-03-20T22:57:42.456Z,102003.41
2023-03-20T23:00:34.533Z,102007.09
2023-03-20T23:03:37.596Z,102005.84
2023-03-20T23:06:28.348Z,101997.19
2023-03-20T23:09:16.613Z,101992.19
2023-03-20T23:12:03.143Z,101988.91
2023-03-20T23:14:49.452Z,101988.13
2023-03-20T23:17:35.898Z,101975.41
2023-03-20T23:20:22.370Z,101977.81
2023-03-20T23:23:10.135Z,101973.53
2023-03-20T23:26:03.539Z,101964.31
2023-03-20T23:28:53.125Z,101968.78
2023-03-20T23:31:39.590Z,101970.75
2023-03-20T23:34:25.962Z,101967.66
2023-03-20T23:37:12.177Z,101974.22
2023-03-20T23:39:59.649Z,101975.47
2023-03-20T23:42:45.981Z,101980.94
2023-03-20T23:45:32.096Z,101974.56
2023-03-20T23:48:18.935Z,101981.75
2023-03-20T23:51:06.631Z,101985.66
2023-03-20T23:53:52.883Z,101983.44
2023-03-20T23:56:40.725Z,101978.66
2023-03-20T23:59:27.220Z,101978.88
